Time;durP1;ratioP1;P1;durP2;ratioP2;P2;SDS_P1;SDS_P2;PMS_P1;PMS_P2;Temp;Humidity;BMP_temperature;BMP_pressure;BME280_temperature;BME280_humidity;BME280_pressure;Samples;Min_cycle;Max_cycle;Signal;HPM_P1;HPM_P2
2021/07/30 00:00:40;;;;;;;4.30;4.00;;;24.10;31.10;;;;;;5073970;28;20445;-65
2021/07/30 00:03:06;;;;;;;4.43;4.03;;;24.10;31.10;;;;;;5073488;28;20202;-65
2021/07/30 00:05:31;;;;;;;4.60;4.03;;;24.10;31.10;;;;;;5073812;28;20545;-65
2021/07/30 00:07:57;;;;;;;4.30;4.00;;;24.10;31.00;;;;;;5074348;28;20213;-66
2021/07/30 00:10:22;;;;;;;4.43;4.03;;;24.10;30.90;;;;;;5073956;28;20290;-66
2021/07/30 00:12:50;;;;;;;4.07;3.77;;;24.10;30.70;;;;;;5074428;28;20171;-66
2021/07/30 00:15:16;;;;;;;4.17;3.83;;;24.10;30.60;;;;;;5073697;28;20179;-66
2021/07/30 00:17:41;;;;;;;4.37;3.80;;;24.10;30.50;;;;;;5073964;28;20405;-64
2021/07/30 00:20:07;;;;;;;5.17;3.30;;;24.10;30.40;;;;;;5073609;28;20533;-65
2021/07/30 00:22:33;;;;;;;4.07;3.77;;;24.00;30.20;;;;;;5073377;28;20661;-64
2021/07/30 00:24:58;;;;;;;3.73;3.43;;;24.10;30.30;;;;;;5072820;28;20449;-65
2021/07/30 00:27:24;;;;;;;3.47;3.17;;;24.10;30.20;;;;;;5073403;28;20171;-64
2021/07/30 00:29:49;;;;;;;4.20;3.80;;;24.00;30.00;;;;;;5073163;28;20260;-64
2021/07/30 00:32:15;;;;;;;3.77;3.53;;;24.00;30.00;;;;;;5072999;28;20664;-64
2021/07/30 00:34:40;;;;;;;4.20;3.90;;;24.00;30.00;;;;;;5073144;28;20177;-64
2021/07/30 00:37:06;;;;;;;4.40;4.10;;;24.00;30.00;;;;;;5073158;28;20185;-64
2021/07/30 00:39:31;;;;;;;4.37;4.07;;;24.00;30.10;;;;;;5072622;28;20195;-64
2021/07/30 00:42:01;;;;;;;3.40;3.20;;;24.00;30.10;;;;;;5073109;28;20213;-64
2021/07/30 00:44:27;;;;;;;4.30;3.87;;;24.00;30.10;;;;;;5072207;28;20617;-64
2021/07/30 00:46:52;;;;;;;3.83;3.47;;;24.00;30.30;;;;;;5072667;28;20488;-64
2021/07/30 00:49:18;;;;;;;3.50;3.30;;;24.00;30.40;;;;;;5073245;28;20211;-64
2021/07/30 00:51:43;;;;;;;3.80;3.53;;;24.00;30.60;;;;;;5071458;28;20172;-65
2021/07/30 00:54:09;;;;;;;4.10;3.73;;;24.00;30.70;;;;;;5071197;28;20567;-64
2021/07/30 00:56:35;;;;;;;3.53;3.30;;;24.00;30.60;;;;;;5072587;28;20179;-64
2021/07/30 00:59:00;;;;;;;4.77;3.27;;;24.00;30.70;;;;;;5072747;28;20666;-65
2021/07/30 01:01:26;;;;;;;3.77;3.40;;;24.00;30.70;;;;;;5072289;28;20317;-64
2021/07/30 01:03:51;;;;;;;4.47;3.60;;;24.00;30.70;;;;;;5072507;28;20225;-64
2021/07/30 01:06:17;;;;;;;4.27;3.97;;;24.00;30.80;;;;;;5072353;28;20182;-64
2021/07/30 01:08:43;;;;;;;3.43;3.23;;;24.00;30.70;;;;;;5072013;28;20657;-64
2021/07/30 01:11:08;;;;;;;4.57;3.80;;;24.00;30.80;;;;;;5072587;28;20167;-64
2021/07/30 01:13:34;;;;;;;5.30;4.07;;;24.00;30.80;;;;;;5072477;28;20175;-64
2021/07/30 01:15:59;;;;;;;4.30;4.00;;;24.00;30.70;;;;;;5071994;28;20174;-65
2021/07/30 01:18:25;;;;;;;4.33;3.97;;;23.90;30.50;;;;;;5072258;28;20249;-64
2021/07/30 01:21:23;;;;;;;4.23;3.77;;;24.00;30.50;;;;;;5072085;28;20254;-64
2021/07/30 01:23:49;;;;;;;4.40;4.00;;;23.90;30.50;;;;;;5072094;28;20183;-65
2021/07/30 01:26:16;;;;;;;3.67;3.47;;;24.00;30.60;;;;;;5071594;28;20500;-64
2021/07/30 01:28:42;;;;;;;3.40;3.10;;;23.90;30.60;;;;;;5072072;28;20433;-65
2021/07/30 01:31:07;;;;;;;3.83;3.53;;;23.90;30.80;;;;;;5071680;28;20486;-65
2021/07/30 01:33:33;;;;;;;3.90;3.60;;;23.90;30.80;;;;;;5071983;28;20164;-64
2021/07/30 01:35:58;;;;;;;3.90;3.63;;;23.90;30.80;;;;;;5071826;28;20171;-64
2021/07/30 01:38:24;;;;;;;3.87;3.50;;;23.90;30.80;;;;;;5071794;28;20248;-64
2021/07/30 01:40:49;;;;;;;4.03;3.70;;;23.90;30.70;;;;;;5071951;28;20185;-65
2021/07/30 01:43:15;;;;;;;4.13;3.83;;;23.90;30.60;;;;;;5071939;28;20258;-64
2021/07/30 01:45:41;;;;;;;4.57;4.13;;;23.90;30.60;;;;;;5071499;28;20167;-64
2021/07/30 01:48:06;;;;;;;4.13;3.83;;;23.90;30.70;;;;;;5071798;28;20187;-64
2021/07/30 01:50:31;;;;;;;5.23;3.70;;;23.90;30.80;;;;;;5071630;28;20211;-64
2021/07/30 01:52:57;;;;;;;3.53;3.33;;;23.90;30.80;;;;;;5071605;28;20203;-64
2021/07/30 01:55:24;;;;;;;4.23;3.93;;;23.90;30.80;;;;;;5071692;28;20187;-64
2021/07/30 01:57:50;;;;;;;3.90;3.60;;;23.90;30.90;;;;;;5071917;28;20236;-64
2021/07/30 02:00:15;;;;;;;4.27;3.97;;;23.90;30.80;;;;;;5071553;28;20449;-64
2021/07/30 02:02:41;;;;;;;4.53;4.23;;;23.90;30.70;;;;;;5071823;28;20904;-64
2021/07/30 02:05:07;;;;;;;4.30;4.00;;;23.90;30.70;;;;;;5071440;28;20198;-64
2021/07/30 02:07:36;;;;;;;3.77;3.50;;;23.90;30.60;;;;;;5071536;28;20179;-64
2021/07/30 02:10:02;;;;;;;4.43;4.10;;;23.90;30.60;;;;;;5071579;28;20457;-64
2021/07/30 02:12:28;;;;;;;4.30;4.00;;;23.90;30.50;;;;;;5071581;28;20412;-64
2021/07/30 02:14:53;;;;;;;3.37;3.17;;;23.80;30.40;;;;;;5071293;28;20416;-64
2021/07/30 02:17:19;;;;;;;3.83;3.53;;;23.90;30.50;;;;;;5071444;28;20178;-64
2021/07/30 02:19:44;;;;;;;4.40;4.00;;;23.90;30.50;;;;;;5071562;28;20252;-64
2021/07/30 02:22:10;;;;;;;4.13;3.90;;;23.80;30.50;;;;;;5071527;28;20572;-64
2021/07/30 02:24:35;;;;;;;3.90;3.70;;;23.80;30.60;;;;;;5071571;28;20178;-64
2021/07/30 02:27:01;;;;;;;3.73;3.50;;;23.90;30.70;;;;;;5071456;28;20581;-64
2021/07/30 02:29:26;;;;;;;3.53;3.33;;;23.80;30.80;;;;;;5071188;28;20210;-64
2021/07/30 02:31:52;;;;;;;3.77;3.57;;;23.80;30.80;;;;;;5071484;28;20635;-64
2021/07/30 02:34:17;;;;;;;3.70;3.50;;;23.80;30.90;;;;;;5071496;28;20175;-64
2021/07/30 02:36:43;;;;;;;4.23;3.83;;;23.80;30.80;;;;;;5070985;28;20163;-64
2021/07/30 02:39:09;;;;;;;4.03;3.73;;;23.80;30.80;;;;;;5071357;28;20760;-64
2021/07/30 02:41:35;;;;;;;4.17;3.87;;;23.80;30.80;;;;;;5071328;28;20270;-64
2021/07/30 02:44:00;;;;;;;3.47;3.27;;;23.80;30.80;;;;;;5071431;28;20183;-64
2021/07/30 02:46:26;;;;;;;4.70;4.30;;;23.80;30.80;;;;;;5070954;28;20186;-64
2021/07/30 02:48:52;;;;;;;4.47;4.17;;;23.80;30.90;;;;;;5071361;28;20191;-64
2021/07/30 02:51:18;;;;;;;4.50;4.20;;;23.80;31.00;;;;;;5071247;28;20175;-64
2021/07/30 02:53:44;;;;;;;4.70;4.37;;;23.80;30.90;;;;;;5071442;28;20774;-65
2021/07/30 02:56:09;;;;;;;4.40;4.00;;;23.80;30.90;;;;;;5071202;28;20203;-64
2021/07/30 02:58:37;;;;;;;4.30;4.00;;;23.80;31.00;;;;;;5071014;28;20668;-65
2021/07/30 03:01:04;;;;;;;6.20;3.83;;;23.80;31.10;;;;;;5071280;28;20194;-65
2021/07/30 03:03:30;;;;;;;5.43;4.17;;;23.80;31.10;;;;;;5071093;28;20483;-65
2021/07/30 03:05:59;;;;;;;4.37;4.07;;;23.80;31.20;;;;;;5070772;28;20919;-65
2021/07/30 03:08:27;;;;;;;4.37;4.07;;;23.80;31.10;;;;;;5074035;28;20397;-65
2021/07/30 03:10:52;;;;;;;3.60;3.30;;;23.80;31.10;;;;;;5074692;28;20489;-65
2021/07/30 03:13:18;;;;;;;4.63;3.93;;;23.80;31.10;;;;;;5074467;28;20446;-65
2021/07/30 03:15:44;;;;;;;4.00;3.80;;;23.80;31.10;;;;;;5074379;28;20795;-65
2021/07/30 03:18:09;;;;;;;3.87;3.67;;;23.80;31.10;;;;;;5060447;28;20202;-65
2021/07/30 03:20:35;;;;;;;4.27;3.87;;;23.80;31.20;;;;;;5054450;28;20523;-65
2021/07/30 03:23:00;;;;;;;4.30;4.00;;;23.80;31.20;;;;;;5054521;28;20207;-65
2021/07/30 03:25:26;;;;;;;5.43;4.30;;;23.80;31.20;;;;;;5054419;28;20179;-65
2021/07/30 03:27:51;;;;;;;4.40;4.00;;;23.80;31.10;;;;;;5054542;28;20200;-65
2021/07/30 03:30:17;;;;;;;4.00;3.70;;;23.80;31.10;;;;;;5054050;28;20196;-65
2021/07/30 03:32:43;;;;;;;3.83;3.50;;;23.80;31.10;;;;;;5054579;28;20199;-65
2021/07/30 03:35:09;;;;;;;3.90;3.60;;;23.70;31.00;;;;;;5054312;28;20172;-65
2021/07/30 03:37:35;;;;;;;3.93;3.63;;;23.70;31.10;;;;;;5054764;28;20431;-65
2021/07/30 03:40:00;;;;;;;5.93;4.37;;;23.80;31.20;;;;;;5055768;28;20857;-65
2021/07/30 03:42:26;;;;;;;3.60;3.40;;;23.80;31.20;;;;;;5055008;28;20184;-65
2021/07/30 03:44:51;;;;;;;4.17;3.87;;;23.80;31.10;;;;;;5053933;28;20639;-65
2021/07/30 03:47:17;;;;;;;4.10;3.80;;;23.80;31.00;;;;;;5054323;28;20180;-65
2021/07/30 03:49:42;;;;;;;3.83;3.53;;;23.70;31.00;;;;;;5054321;28;20644;-65
2021/07/30 03:52:08;;;;;;;4.30;3.80;;;23.70;30.90;;;;;;5053666;28;20258;-65
2021/07/30 03:54:33;;;;;;;4.13;3.90;;;23.70;31.60;;;;;;5053788;28;20254;-65
2021/07/30 03:56:59;;;;;;;4.20;3.90;;;23.70;30.90;;;;;;5054164;28;20196;-65
2021/07/30 03:59:24;;;;;;;3.87;3.67;;;23.70;30.90;;;;;;5052417;28;20257;-65
2021/07/30 04:01:50;;;;;;;4.67;4.37;;;23.70;30.90;;;;;;5053706;28;20176;-65
2021/07/30 04:04:16;;;;;;;4.33;4.03;;;23.70;31.00;;;;;;5054073;28;20192;-65
2021/07/30 04:06:44;;;;;;;4.23;3.93;;;23.70;31.10;;;;;;5053188;28;20211;-65
2021/07/30 04:09:13;;;;;;;4.40;4.00;;;23.70;31.10;;;;;;5053612;28;20556;-65
2021/07/30 04:11:40;;;;;;;4.07;3.80;;;23.70;31.10;;;;;;5053773;28;20424;-65
2021/07/30 04:14:06;;;;;;;3.80;3.53;;;23.70;31.10;;;;;;5053205;28;20791;-65
2021/07/30 04:16:35;;;;;;;4.10;3.80;;;23.70;31.10;;;;;;5053351;28;20403;-65
2021/07/30 04:19:05;;;;;;;4.63;3.47;;;23.70;31.10;;;;;;5052465;28;20454;-65
2021/07/30 04:21:30;;;;;;;3.97;3.57;;;23.70;31.20;;;;;;5053117;28;20410;-65
2021/07/30 04:23:58;;;;;;;4.50;4.20;;;23.70;31.30;;;;;;5053422;28;20440;-65
2021/07/30 04:26:24;;;;;;;4.53;4.23;;;23.70;31.50;;;;;;5052617;28;20202;-65
2021/07/30 04:28:49;;;;;;;4.03;3.63;;;23.70;31.60;;;;;;5052876;28;20929;-65
2021/07/30 04:31:15;;;;;;;3.90;3.60;;;23.70;31.90;;;;;;5053039;28;20168;-68
2021/07/30 04:33:40;;;;;;;6.30;4.20;;;23.70;31.90;;;;;;5052538;28;20176;-65
2021/07/30 04:36:13;;;;;;;5.00;4.20;;;23.70;31.90;;;;;;5052646;28;20686;-65
2021/07/30 04:38:38;;;;;;;4.60;4.20;;;23.70;32.00;;;;;;5052942;28;20275;-65
2021/07/30 04:41:04;;;;;;;4.70;4.30;;;23.70;32.40;;;;;;5052862;28;20502;-65
2021/07/30 04:43:31;;;;;;;4.80;4.40;;;23.70;31.30;;;;;;5052523;28;20183;-64
2021/07/30 04:45:57;;;;;;;5.67;5.00;;;23.70;31.00;;;;;;5052253;28;20497;-63
2021/07/30 04:48:22;;;;;;;4.37;3.97;;;23.70;31.00;;;;;;5052336;28;21031;-65
2021/07/30 04:50:47;;;;;;;4.93;4.43;;;23.70;31.10;;;;;;5052163;28;20204;-65
2021/07/30 04:53:13;;;;;;;5.33;3.80;;;23.60;31.10;;;;;;5052587;28;20176;-64
2021/07/30 04:55:39;;;;;;;4.60;4.13;;;23.60;31.20;;;;;;5052373;28;20176;-64
2021/07/30 04:58:04;;;;;;;4.60;4.30;;;23.70;31.40;;;;;;5052476;28;20237;-65
2021/07/30 05:00:30;;;;;;;10.87;4.30;;;23.60;31.20;;;;;;5052585;28;20732;-66
2021/07/30 05:02:55;;;;;;;4.30;4.00;;;23.60;31.20;;;;;;5052583;28;20180;-67
2021/07/30 05:05:21;;;;;;;4.67;4.23;;;23.60;31.20;;;;;;5052334;28;20193;-67
2021/07/30 05:07:47;;;;;;;5.00;4.07;;;23.60;31.20;;;;;;5052529;28;20903;-67
2021/07/30 05:10:13;;;;;;;5.40;4.90;;;23.60;31.10;;;;;;5052253;28;20219;-65
2021/07/30 05:12:38;;;;;;;4.70;4.23;;;23.60;31.10;;;;;;5052069;28;20910;-65
2021/07/30 05:15:05;;;;;;;4.67;4.27;;;23.60;31.20;;;;;;5052158;28;20175;-66
2021/07/30 05:17:31;;;;;;;4.23;3.93;;;23.60;31.30;;;;;;5052206;28;20179;-66
2021/07/30 05:19:56;;;;;;;6.20;4.70;;;23.70;31.40;;;;;;5052008;28;20801;-66
2021/07/30 05:22:22;;;;;;;4.47;3.97;;;23.60;31.30;;;;;;5052428;28;20187;-65
2021/07/30 05:24:47;;;;;;;4.50;4.17;;;23.70;31.40;;;;;;5051960;28;20266;-66
2021/07/30 05:27:14;;;;;;;4.70;4.30;;;23.70;31.40;;;;;;5051997;28;20233;-66
2021/07/30 05:29:39;;;;;;;5.93;4.70;;;23.70;31.40;;;;;;5051590;28;20212;-66
2021/07/30 05:32:07;;;;;;;4.53;4.13;;;23.70;31.60;;;;;;5052035;28;20529;-67
2021/07/30 05:34:33;;;;;;;4.20;3.90;;;23.70;31.70;;;;;;5051685;28;20176;-66
2021/07/30 05:36:58;;;;;;;5.17;4.67;;;23.70;31.70;;;;;;5051982;28;20417;-67
2021/07/30 05:39:24;;;;;;;4.80;4.27;;;23.70;31.70;;;;;;5051936;28;20674;-67
2021/07/30 05:41:49;;;;;;;4.97;4.57;;;23.70;31.60;;;;;;5051827;28;20187;-66
2021/07/30 05:44:15;;;;;;;4.70;4.40;;;23.70;31.50;;;;;;5051879;28;20167;-66
2021/07/30 05:46:41;;;;;;;5.83;4.23;;;23.70;31.40;;;;;;5051640;28;20214;-67
2021/07/30 05:49:07;;;;;;;4.50;4.10;;;23.80;31.40;;;;;;5051613;28;20200;-68
2021/07/30 05:51:37;;;;;;;4.23;3.93;;;23.70;31.20;;;;;;5051703;28;20406;-66
2021/07/30 05:54:03;;;;;;;4.40;4.10;;;23.80;31.30;;;;;;5051688;28;20241;-66
2021/07/30 05:56:28;;;;;;;6.37;4.97;;;23.80;31.10;;;;;;5051312;28;20411;-66
2021/07/30 05:58:54;;;;;;;5.97;5.47;;;23.80;31.20;;;;;;5051689;28;20476;-67
2021/07/30 06:01:19;;;;;;;6.87;4.57;;;23.80;31.20;;;;;;5051436;28;20175;-65
2021/07/30 06:03:45;;;;;;;4.70;4.40;;;23.80;31.10;;;;;;5050795;28;20226;-66
2021/07/30 06:06:10;;;;;;;5.37;4.97;;;23.80;30.90;;;;;;5051656;28;20215;-67
2021/07/30 06:08:36;;;;;;;5.40;4.90;;;23.80;30.80;;;;;;5051376;28;20234;-66
2021/07/30 06:11:04;;;;;;;4.80;4.20;;;23.80;30.70;;;;;;5051358;28;20735;-66
2021/07/30 06:13:29;;;;;;;5.33;4.93;;;23.80;30.70;;;;;;5051753;28;20176;-66
2021/07/30 06:15:55;;;;;;;5.27;4.70;;;23.80;30.70;;;;;;5051350;28;20407;-65
2021/07/30 06:18:20;;;;;;;4.70;4.30;;;23.80;30.60;;;;;;5049941;28;20187;-65
2021/07/30 06:20:46;;;;;;;7.77;5.40;;;23.80;30.60;;;;;;5050370;28;20596;-65
2021/07/30 06:23:11;;;;;;;5.77;5.30;;;23.80;30.60;;;;;;5051239;28;20180;-66
2021/07/30 06:25:37;;;;;;;5.67;4.23;;;23.80;30.80;;;;;;5051002;28;20255;-67
2021/07/30 06:28:03;;;;;;;4.80;4.40;;;23.90;30.80;;;;;;5051359;28;20175;-67
2021/07/30 06:30:28;;;;;;;5.00;4.60;;;23.90;30.80;;;;;;5051209;28;20644;-67
2021/07/30 06:32:54;;;;;;;4.93;4.53;;;23.90;30.70;;;;;;5051267;28;20482;-66
2021/07/30 06:35:20;;;;;;;4.77;4.40;;;23.90;30.70;;;;;;5051050;28;20172;-66
2021/07/30 06:37:46;;;;;;;5.43;4.80;;;23.90;30.80;;;;;;5050992;28;20315;-66
2021/07/30 06:40:13;;;;;;;4.33;3.93;;;23.90;30.70;;;;;;5051369;28;20434;-67
2021/07/30 06:42:39;;;;;;;4.90;4.40;;;23.90;30.80;;;;;;5052747;28;20410;-66
2021/07/30 06:45:06;;;;;;;6.40;4.50;;;23.90;30.80;;;;;;5055019;28;20419;-66
2021/07/30 06:47:37;;;;;;;4.87;4.17;;;23.90;30.80;;;;;;5055151;28;20418;-66
2021/07/30 06:50:04;;;;;;;4.60;4.30;;;23.90;30.80;;;;;;5054532;28;20504;-64
2021/07/30 06:52:31;;;;;;;7.00;4.50;;;23.90;30.80;;;;;;5054887;28;20509;-66
2021/07/30 06:54:57;;;;;;;5.03;4.43;;;23.90;30.90;;;;;;5054811;28;20406;-65
2021/07/30 06:57:22;;;;;;;5.70;4.53;;;24.00;31.10;;;;;;5054290;28;20944;-67
2021/07/30 06:59:48;;;;;;;4.63;4.10;;;24.00;31.10;;;;;;5055353;28;20191;-67
2021/07/30 07:02:14;;;;;;;6.10;5.00;;;24.00;31.20;;;;;;5055165;28;20180;-67
2021/07/30 07:04:40;;;;;;;6.33;4.77;;;24.00;31.20;;;;;;5054351;28;20497;-67
2021/07/30 07:07:05;;;;;;;7.47;4.97;;;24.00;31.30;;;;;;5055096;28;20454;-67
2021/07/30 07:09:31;;;;;;;5.93;5.10;;;24.00;31.30;;;;;;5055626;28;20250;-67
2021/07/30 07:11:56;;;;;;;6.20;4.70;;;24.00;31.30;;;;;;5055267;28;20296;-68
2021/07/30 07:14:22;;;;;;;5.27;4.87;;;24.00;31.30;;;;;;5054542;28;20269;-68
2021/07/30 07:16:47;;;;;;;7.83;5.13;;;24.00;31.30;;;;;;5052912;28;20180;-65
2021/07/30 07:19:13;;;;;;;6.00;4.70;;;24.00;31.30;;;;;;5049649;28;20238;-64
2021/07/30 07:21:39;;;;;;;5.10;4.60;;;24.00;31.40;;;;;;5052025;28;20689;-64
2021/07/30 07:24:07;;;;;;;5.63;4.67;;;24.10;31.60;;;;;;5052107;28;20186;-64
2021/07/30 07:26:35;;;;;;;5.80;5.20;;;24.10;31.60;;;;;;5051384;28;20422;-64
2021/07/30 07:29:01;;;;;;;5.90;5.07;;;24.10;31.60;;;;;;5052645;28;20913;-64
2021/07/30 07:31:26;;;;;;;8.53;4.90;;;24.10;31.60;;;;;;5052016;28;20489;-64
2021/07/30 07:33:52;;;;;;;7.40;4.23;;;24.10;31.90;;;;;;5051866;28;20178;-67
2021/07/30 07:36:17;;;;;;;9.50;4.53;;;24.10;32.20;;;;;;5052484;28;20175;-66
2021/07/30 07:38:43;;;;;;;6.23;4.30;;;24.20;32.20;;;;;;5052373;28;20184;-65
2021/07/30 07:41:09;;;;;;;5.00;4.60;;;24.20;32.10;;;;;;5052104;28;20186;-65
2021/07/30 07:43:36;;;;;;;5.63;4.80;;;24.20;31.90;;;;;;5052405;28;20184;-66
2021/07/30 07:46:02;;;;;;;8.70;4.50;;;24.20;31.50;;;;;;5052461;28;20904;-65
2021/07/30 07:48:27;;;;;;;8.97;4.70;;;24.30;31.60;;;;;;5051777;28;20406;-66
2021/07/30 07:50:53;;;;;;;8.83;5.70;;;24.30;31.90;;;;;;5052133;28;20680;-65
2021/07/30 07:53:19;;;;;;;4.80;4.43;;;24.30;32.20;;;;;;5052275;28;20178;-65
2021/07/30 07:55:46;;;;;;;5.30;4.80;;;24.30;33.10;;;;;;5051573;28;20176;-64
2021/07/30 07:58:11;;;;;;;5.50;4.80;;;24.30;33.60;;;;;;5052406;28;20403;-65
2021/07/30 08:00:37;;;;;;;5.00;4.53;;;24.30;33.70;;;;;;5052168;28;20429;-65
2021/07/30 08:03:03;;;;;;;5.33;4.93;;;24.30;33.70;;;;;;5051374;28;20203;-65
2021/07/30 08:05:29;;;;;;;5.57;5.17;;;24.30;33.60;;;;;;5051704;28;20592;-64
2021/07/30 08:07:54;;;;;;;5.70;5.17;;;24.30;33.60;;;;;;5051508;28;20218;-65
2021/07/30 08:10:20;;;;;;;5.90;5.40;;;24.30;33.60;;;;;;5051302;28;20265;-66
2021/07/30 08:12:46;;;;;;;5.27;4.87;;;24.30;33.60;;;;;;5051454;28;20184;-65
2021/07/30 08:15:12;;;;;;;5.57;5.03;;;24.30;33.60;;;;;;5051461;28;20179;-65
2021/07/30 08:17:38;;;;;;;5.23;4.83;;;24.30;33.60;;;;;;5049857;28;20437;-66
2021/07/30 08:20:05;;;;;;;5.17;4.77;;;24.20;33.50;;;;;;5051833;28;20438;-65
2021/07/30 08:22:31;;;;;;;5.97;5.30;;;24.30;33.60;;;;;;5051616;28;20430;-64
2021/07/30 08:24:57;;;;;;;6.37;5.80;;;24.30;33.40;;;;;;5051183;28;20399;-66
2021/07/30 08:27:22;;;;;;;5.30;4.90;;;24.30;33.00;;;;;;5051636;28;20172;-66
2021/07/30 08:29:48;;;;;;;5.33;4.93;;;24.30;33.00;;;;;;5051572;28;20203;-65
2021/07/30 08:32:14;;;;;;;5.00;4.70;;;24.30;32.80;;;;;;5050958;28;20191;-66
2021/07/30 08:34:40;;;;;;;5.60;5.20;;;24.30;32.40;;;;;;5051586;28;20176;-66
2021/07/30 08:37:06;;;;;;;5.70;5.20;;;24.30;32.30;;;;;;5052089;28;20961;-65
2021/07/30 08:39:32;;;;;;;6.90;5.47;;;24.40;32.40;;;;;;5051460;28;20263;-66
2021/07/30 08:42:00;;;;;;;7.50;5.20;;;24.40;32.00;;;;;;5051382;28;20505;-66
2021/07/30 08:44:26;;;;;;;5.70;5.17;;;24.40;31.90;;;;;;5051254;28;20588;-66
2021/07/30 08:46:52;;;;;;;5.27;4.80;;;24.40;31.80;;;;;;5050596;28;20406;-66
2021/07/30 08:49:18;;;;;;;5.90;5.40;;;24.40;31.40;;;;;;5051086;28;20465;-66
2021/07/30 08:51:46;;;;;;;5.80;5.30;;;24.40;31.30;;;;;;5051356;28;20415;-65
2021/07/30 08:54:13;;;;;;;5.43;5.00;;;24.50;31.30;;;;;;5050684;28;20203;-66
2021/07/30 08:56:39;;;;;;;6.80;6.20;;;24.50;31.30;;;;;;5050732;28;20463;-66
2021/07/30 08:59:07;;;;;;;6.37;5.87;;;24.50;31.40;;;;;;5048073;28;20537;-66
2021/07/30 09:01:34;;;;;;;7.47;6.73;;;24.50;31.40;;;;;;5049991;28;20195;-66
2021/07/30 09:03:59;;;;;;;6.20;5.63;;;24.50;31.40;;;;;;5050878;28;20808;-65
2021/07/30 09:06:25;;;;;;;6.27;5.67;;;24.50;30.90;;;;;;5050191;28;20481;-65
2021/07/30 09:09:02;;;;;;;6.33;5.83;;;24.50;31.00;;;;;;5050553;28;20200;-64
2021/07/30 09:11:36;;;;;;;5.90;5.37;;;24.60;31.10;;;;;;5050768;28;20176;-66
2021/07/30 09:14:10;;;;;;;5.83;4.60;;;24.60;30.80;;;;;;5050430;28;20395;-66
2021/07/30 09:16:53;;;;;;;5.00;4.60;;;24.60;31.70;;;;;;5049980;28;20468;-64
2021/07/30 09:19:19;;;;;;;5.47;5.07;;;24.60;31.20;;;;;;5050519;28;20521;-64
2021/07/30 09:21:45;;;;;;;5.70;5.30;;;24.60;31.30;;;;;;5050359;28;20479;-67
2021/07/30 09:24:17;;;;;;;5.80;5.20;;;24.50;31.40;;;;;;5051967;28;20415;-66
2021/07/30 09:26:50;;;;;;;5.43;5.03;;;24.60;31.70;;;;;;5052621;28;20418;-67
2021/07/30 09:29:18;;;;;;;5.70;5.30;;;24.60;31.60;;;;;;5053314;28;20465;-67
2021/07/30 09:31:51;;;;;;;5.67;5.17;;;24.60;31.60;;;;;;5052580;28;20548;-67
2021/07/30 09:34:27;;;;;;;5.53;5.10;;;24.60;31.60;;;;;;5052880;28;20403;-67
2021/07/30 09:37:04;;;;;;;6.20;5.70;;;24.60;31.60;;;;;;5052431;28;20517;-69
2021/07/30 09:39:33;;;;;;;6.00;5.50;;;24.60;31.60;;;;;;5052900;28;20429;-69
2021/07/30 09:42:08;;;;;;;5.73;4.93;;;24.60;31.60;;;;;;5052882;28;20816;-68
2021/07/30 09:44:34;;;;;;;5.77;5.37;;;24.60;31.70;;;;;;5052318;28;20441;-68
2021/07/30 09:47:17;;;;;;;5.57;5.17;;;24.60;31.70;;;;;;5051730;28;20909;-69
2021/07/30 09:50:07;;;;;;;6.50;6.00;;;24.60;31.60;;;;;;5052665;28;20466;-67
2021/07/30 09:52:38;;;;;;;6.20;5.70;;;24.60;31.80;;;;;;5049467;28;20433;-69
2021/07/30 09:55:10;;;;;;;5.87;5.37;;;24.60;31.90;;;;;;5052725;28;20769;-68
2021/07/30 09:57:38;;;;;;;6.00;5.50;;;24.60;32.10;;;;;;5052369;28;20907;-69
2021/07/30 10:00:14;;;;;;;6.20;5.33;;;24.60;32.00;;;;;;5051779;28;20438;-70
2021/07/30 10:02:44;;;;;;;5.47;4.97;;;24.60;32.00;;;;;;5052480;28;20789;-68
2021/07/30 10:05:13;;;;;;;5.80;5.30;;;24.60;32.10;;;;;;5051880;28;20525;-68
2021/07/30 10:07:41;;;;;;;5.20;4.77;;;24.60;32.10;;;;;;5052069;28;20564;-68
2021/07/30 10:10:12;;;;;;;5.87;5.47;;;24.60;32.20;;;;;;5051935;28;20457;-66
2021/07/30 10:12:43;;;;;;;5.17;4.77;;;24.70;32.40;;;;;;5051879;28;20419;-65
2021/07/30 10:15:09;;;;;;;6.17;5.57;;;24.70;32.40;;;;;;5051386;28;20410;-68
2021/07/30 10:17:37;;;;;;;6.43;5.93;;;24.70;32.50;;;;;;5053148;28;20740;-70
2021/07/30 10:20:05;;;;;;;5.80;5.40;;;24.70;32.50;;;;;;5055776;28;20521;-68
2021/07/30 10:22:51;;;;;;;6.00;5.60;;;24.70;32.50;;;;;;5055372;28;20414;-68
2021/07/30 10:25:22;;;;;;;5.73;5.33;;;24.70;32.60;;;;;;5056145;28;20455;-67
2021/07/30 10:27:49;;;;;;;6.20;5.60;;;24.70;32.60;;;;;;5055838;28;20439;-68
2021/07/30 10:30:16;;;;;;;5.60;5.00;;;24.70;32.60;;;;;;5056124;28;20462;-68
2021/07/30 10:32:49;;;;;;;5.83;5.33;;;24.70;32.70;;;;;;5056162;28;20414;-68
2021/07/30 10:35:38;;;;;;;5.40;5.00;;;24.70;32.60;;;;;;5055354;28;20587;-68
2021/07/30 10:38:19;;;;;;;5.47;5.07;;;24.70;32.60;;;;;;5056225;28;20410;-69
2021/07/30 10:41:07;;;;;;;6.30;5.80;;;24.70;32.60;;;;;;5056320;28;20776;-68
2021/07/30 10:44:01;;;;;;;6.07;5.50;;;24.70;32.70;;;;;;5055529;28;20414;-69
2021/07/30 10:46:27;;;;;;;5.80;5.20;;;24.70;32.70;;;;;;5055788;28;20831;-66
2021/07/30 10:48:55;;;;;;;6.20;5.70;;;24.70;32.90;;;;;;5055310;28;20434;-66
2021/07/30 10:51:24;;;;;;;6.10;5.60;;;24.70;33.00;;;;;;5055249;28;20417;-66
2021/07/30 10:54:08;;;;;;;6.00;5.50;;;24.70;33.10;;;;;;5054660;28;20410;-67
2021/07/30 10:56:37;;;;;;;6.20;5.73;;;24.70;33.60;;;;;;5040669;28;20496;-68
2021/07/30 10:59:05;;;;;;;6.47;5.97;;;24.70;33.60;;;;;;5048120;28;20471;-65
2021/07/30 11:01:30;;;;;;;5.70;5.20;;;24.70;33.60;;;;;;5043970;28;21028;-66
2021/07/30 11:03:58;;;;;;;5.37;4.97;;;24.70;33.70;;;;;;5043944;28;20537;-65
2021/07/30 11:06:31;;;;;;;5.40;5.00;;;24.70;33.70;;;;;;5045303;28;20171;-66
2021/07/30 11:09:03;;;;;;;6.50;6.00;;;24.70;34.00;;;;;;5044907;28;20429;-66
2021/07/30 11:11:41;;;;;;;6.93;5.63;;;24.70;34.00;;;;;;5044345;28;20396;-65
2021/07/30 11:14:08;;;;;;;6.10;5.60;;;24.70;34.00;;;;;;5043467;28;20442;-65
2021/07/30 11:16:34;;;;;;;5.93;5.37;;;24.70;34.70;;;;;;5044151;28;20489;-65
2021/07/30 11:19:04;;;;;;;6.40;5.90;;;24.70;34.00;;;;;;5044614;28;21257;-66
2021/07/30 11:21:29;;;;;;;6.63;6.13;;;24.70;34.00;;;;;;5043931;28;20644;-65
2021/07/30 11:23:56;;;;;;;6.03;5.63;;;24.70;34.00;;;;;;5043823;28;20418;-65
2021/07/30 11:26:22;;;;;;;5.80;5.20;;;24.80;34.10;;;;;;5042471;28;20976;-65
2021/07/30 11:28:52;;;;;;;6.17;5.67;;;24.80;34.10;;;;;;5044444;28;20422;-64
2021/07/30 11:31:18;;;;;;;6.63;6.13;;;24.80;34.10;;;;;;5043921;28;20253;-64
2021/07/30 11:33:44;;;;;;;5.70;5.30;;;24.80;34.10;;;;;;5043085;28;20407;-65
2021/07/30 11:36:13;;;;;;;6.50;6.00;;;24.80;34.10;;;;;;5044041;28;20409;-64
2021/07/30 11:38:48;;;;;;;6.17;5.67;;;24.80;34.10;;;;;;5041314;28;20200;-68
2021/07/30 11:41:14;;;;;;;6.70;6.10;;;24.80;34.10;;;;;;5054006;28;20409;-66
2021/07/30 11:44:02;;;;;;;6.73;6.23;;;24.80;34.10;;;;;;5054597;28;20833;-67
2021/07/30 11:46:30;;;;;;;6.47;5.97;;;24.80;34.10;;;;;;5054343;28;20842;-67
2021/07/30 11:48:56;;;;;;;6.60;6.13;;;24.80;34.10;;;;;;5054636;28;20534;-66
2021/07/30 11:51:23;;;;;;;6.30;5.80;;;24.80;34.10;;;;;;5053752;28;20940;-66
2021/07/30 11:53:53;;;;;;;6.43;5.93;;;24.80;34.10;;;;;;5054676;28;20454;-67
2021/07/30 11:56:19;;;;;;;5.93;5.50;;;24.80;34.10;;;;;;5054060;28;20406;-68
2021/07/30 11:58:58;;;;;;;6.80;6.30;;;24.80;34.10;;;;;;5053345;28;20848;-68
2021/07/30 12:01:28;;;;;;;6.37;5.87;;;24.80;34.10;;;;;;5054059;28;20768;-65
2021/07/30 12:04:06;;;;;;;6.47;5.97;;;24.80;34.10;;;;;;5054111;28;20426;-67
2021/07/30 12:06:55;;;;;;;6.40;5.90;;;24.80;34.10;;;;;;5053955;28;20775;-68
2021/07/30 12:09:21;;;;;;;6.03;5.53;;;24.80;34.10;;;;;;5052095;28;20832;-65
2021/07/30 12:11:53;;;;;;;6.40;5.90;;;24.80;34.10;;;;;;5053944;28;20421;-68
2021/07/30 12:14:21;;;;;;;8.50;6.20;;;24.80;34.10;;;;;;5053386;28;20501;-69
2021/07/30 12:16:47;;;;;;;6.20;5.70;;;24.80;34.10;;;;;;5052389;28;20783;-68
2021/07/30 12:19:12;;;;;;;6.93;5.80;;;24.80;34.10;;;;;;5053519;28;21035;-68
2021/07/30 12:21:54;;;;;;;8.73;6.53;;;24.80;34.10;;;;;;5053190;28;20406;-69
2021/07/30 12:24:20;;;;;;;7.27;6.77;;;24.80;34.10;;;;;;5053516;28;20554;-69
2021/07/30 12:26:45;;;;;;;7.30;5.97;;;24.80;34.10;;;;;;5053469;28;20407;-69
2021/07/30 12:29:37;;;;;;;6.50;6.10;;;24.80;34.10;;;;;;5053051;28;20279;-67
2021/07/30 12:32:13;;;;;;;6.60;5.90;;;24.80;34.10;;;;;;5053405;28;20167;-68
2021/07/30 12:34:38;;;;;;;6.67;6.17;;;24.80;34.10;;;;;;5053041;28;20401;-69
2021/07/30 12:37:08;;;;;;;6.07;5.57;;;24.80;34.10;;;;;;5053041;28;20406;-68
2021/07/30 12:39:49;;;;;;;6.83;6.33;;;24.80;34.10;;;;;;5052621;28;20736;-71
2021/07/30 12:42:41;;;;;;;6.20;5.73;;;24.80;34.10;;;;;;5053617;28;20426;-67
2021/07/30 12:45:12;;;;;;;6.90;6.20;;;24.80;34.10;;;;;;5052039;28;21010;-68
2021/07/30 12:47:39;;;;;;;7.03;6.33;;;24.80;34.10;;;;;;5053810;28;20556;-69
2021/07/30 12:50:31;;;;;;;6.60;6.10;;;24.80;34.10;;;;;;5054544;28;20462;-69